Kezdőlap
METAR-TAF:

METAR-TAF

Repülőterek :

Knox County Regional Airport

Rockland, Maine, Amerikai Egyesült Államok

földrajzi szélesség: 44-04N, földrajzi hosszúság: 069-06W, magasság: 17 m

Jelenlegi meteorológiai megfigyelések

A jelentés 38 perccel ezelõtt készült, 18:56 UTC
Különbözõ irányokból fújó szél 5 kt
Hőmérséklet 3°C
Páratartalom 41%
Légköri nyomás 1017 hPa
Látótávolság: 16.1 km
Derült ég

METAR: KRKD 221856Z AUTO VRB05KT 10SM CLR 03/M09 A3002 RMK AO2 SLP167 T00331089

Idő: 14:34 (19:34 UTC)

Előrejelzés

A jelentés 2 órával és 14 perccel ezelõtt készült, 17:20 UTC
Az előrejelzés 22-én 18 óra UTC és 23-én 18 óra UTC között érvényes
Nyugati szél 8 kt
Látótávolság: 10 km
Kevés felhő 20000 lábon

TAF: KRKD 221720Z 2218/2318 26008KT P6SM FEW200 AMD LTD TO CLD VIS AND WIND

Meteorológiai megfigyelések és előrejelzések több, mint 4000 repülőtéren (METAR és TAF jelentéseket).

A térképen piros és sárga pontok jelzik az elérhető meteorológiai állomásokat.

Mozgassa az egeret a pont fölött, hogy megjelenjen az állomás neve.

Azután kattintson az időjárási megfigyelések és előrejelzések megtekintéséhez.

A térkép megváltoztatása: kattintson a fekete keresztel jelölt zöld gombra ráközelítéshez, a vonallal jelölt zöld gombra távolításhoz, vagy a zöld nyilakra a szomszédos térképek eléréséhez.


METAR-TAF: